Etusivu
METAR-TAF:

METAR-TAF

Lentoasemat :

Marshall County Airport

Lacon, Illinois, Yhdysvallat

Leveyspiiri: 41-01-09N, Pituuspiiri: 089-23-11W, korkeus merenpinnasta: 173 m

Tämänhetkinen sää

Tämä raportti tehtiin 25 minuuttia sitten, kello 07.55 UTC
tyyntä
Lämpötila 8°C
Kosteus 93%
Ilmanpaine 1013 hPa
Näkyvyys: 16.1 km
selkeää

METAR: KC75 290755Z AUTO 00000KT 10SM CLR 08/07 A2990 RMK AO2 T00800070

Aika: 03:20 (08:20 UTC)


TAF: puuttuu

Säähavainnot ja -ennusteet yli 4000 lentoasemalta (METAR- ja TAF-raportit).

Käytössä olevat sääasemat on merkitty karttaan keltaisilla ja punaisilla pisteillä.

Aseta hiiri pisteen päälle nähdäksesi sääaseman nimen.

Klikkaa sitten nähdäksesi säähavainnot ja -ennusteet.

Kartan vaihtaminen: klikkaa mustalla rastilla varustettuja vihreitä pisteitä, niin voit zoomata sisään; viivalla varustettua vihreää pistettä, niin voit zoomata ulos tai vihreitä nuolia, niin pääset viereisille kartoille.


METAR-TAF: